sensor_id;sensor_type;location;lat;lon;timestamp;pressure;altitude;pressure_sealevel;temperature;humidity
59877;BME280;74472;51.140;17.184;2024-02-28T00:01:36;100103.63;;;8.48;91.50
59877;BME280;74472;51.140;17.184;2024-02-28T00:04:02;100114.16;;;8.48;91.74
59877;BME280;74472;51.140;17.184;2024-02-28T00:06:27;100109.00;;;8.46;91.85
59877;BME280;74472;51.140;17.184;2024-02-28T00:08:52;100103.00;;;8.44;91.70
59877;BME280;74472;51.140;17.184;2024-02-28T00:11:20;100107.31;;;8.45;91.64
59877;BME280;74472;51.140;17.184;2024-02-28T00:13:45;100104.16;;;8.40;91.96
59877;BME280;74472;51.140;17.184;2024-02-28T00:16:10;100112.22;;;8.37;92.07
59877;BME280;74472;51.140;17.184;2024-02-28T00:18:36;100109.03;;;8.32;91.98
59877;BME280;74472;51.140;17.184;2024-02-28T00:21:02;100104.00;;;8.29;92.17
59877;BME280;74472;51.140;17.184;2024-02-28T00:23:29;100111.16;;;8.27;92.39
59877;BME280;74472;51.140;17.184;2024-02-28T00:25:54;100117.34;;;8.26;92.74
59877;BME280;74472;51.140;17.184;2024-02-28T00:28:19;100115.03;;;8.21;92.69
59877;BME280;74472;51.140;17.184;2024-02-28T00:30:45;100113.63;;;8.15;93.23
59877;BME280;74472;51.140;17.184;2024-02-28T00:33:10;100118.81;;;8.17;93.08
59877;BME280;74472;51.140;17.184;2024-02-28T00:35:35;100122.34;;;8.16;93.27
59877;BME280;74472;51.140;17.184;2024-02-28T00:38:01;100120.47;;;8.18;93.27
59877;BME280;74472;51.140;17.184;2024-02-28T00:40:27;100117.66;;;8.21;93.36
59877;BME280;74472;51.140;17.184;2024-02-28T00:42:53;100118.81;;;8.17;93.27
59877;BME280;74472;51.140;17.184;2024-02-28T00:45:19;100109.97;;;8.18;93.16
59877;BME280;74472;51.140;17.184;2024-02-28T00:47:44;100111.56;;;8.20;93.05
59877;BME280;74472;51.140;17.184;2024-02-28T00:50:10;100114.47;;;8.16;93.10
59877;BME280;74472;51.140;17.184;2024-02-28T00:52:36;100114.16;;;8.08;93.61
59877;BME280;74472;51.140;17.184;2024-02-28T00:55:02;100114.78;;;8.11;93.89
59877;BME280;74472;51.140;17.184;2024-02-28T00:57:27;100112.16;;;8.11;93.53
59877;BME280;74472;51.140;17.184;2024-02-28T00:59:52;100113.09;;;8.10;93.84
59877;BME280;74472;51.140;17.184;2024-02-28T01:02:20;100104.91;;;8.15;93.83
59877;BME280;74472;51.140;17.184;2024-02-28T01:04:45;100096.38;;;8.11;93.77
59877;BME280;74472;51.140;17.184;2024-02-28T01:07:10;100108.56;;;8.12;93.93
59877;BME280;74472;51.140;17.184;2024-02-28T01:09:35;100099.97;;;8.10;93.94
59877;BME280;74472;51.140;17.184;2024-02-28T01:12:01;100110.28;;;8.13;94.06
59877;BME280;74472;51.140;17.184;2024-02-28T01:14:26;100109.13;;;8.17;93.84
59877;BME280;74472;51.140;17.184;2024-02-28T01:16:51;100116.69;;;8.22;94.14
59877;BME280;74472;51.140;17.184;2024-02-28T01:19:17;100106.19;;;8.22;93.91
59877;BME280;74472;51.140;17.184;2024-02-28T01:21:42;100113.22;;;8.21;93.75
59877;BME280;74472;51.140;17.184;2024-02-28T01:24:07;100109.97;;;8.18;93.85
59877;BME280;74472;51.140;17.184;2024-02-28T01:26:33;100122.16;;;8.19;94.10
59877;BME280;74472;51.140;17.184;2024-02-28T01:28:58;100113.97;;;8.23;94.09
59877;BME280;74472;51.140;17.184;2024-02-28T01:31:24;100115.47;;;8.28;94.12
59877;BME280;74472;51.140;17.184;2024-02-28T01:33:49;100117.69;;;8.34;94.04
59877;BME280;74472;51.140;17.184;2024-02-28T01:36:14;100112.22;;;8.37;93.93
59877;BME280;74472;51.140;17.184;2024-02-28T01:38:40;100117.56;;;8.35;93.93
59877;BME280;74472;51.140;17.184;2024-02-28T01:41:05;100112.88;;;8.40;94.14
59877;BME280;74472;51.140;17.184;2024-02-28T01:43:31;100118.56;;;8.47;93.78
59877;BME280;74472;51.140;17.184;2024-02-28T01:46:01;100115.84;;;8.49;93.73
59877;BME280;74472;51.140;17.184;2024-02-28T01:48:28;100111.94;;;8.41;93.74
59877;BME280;74472;51.140;17.184;2024-02-28T01:50:55;100105.84;;;8.41;93.79
59877;BME280;74472;51.140;17.184;2024-02-28T01:53:20;100115.84;;;8.49;93.84
59877;BME280;74472;51.140;17.184;2024-02-28T01:55:46;100095.31;;;8.41;93.73
59877;BME280;74472;51.140;17.184;2024-02-28T01:58:12;100104.25;;;8.38;93.68
59877;BME280;74472;51.140;17.184;2024-02-28T02:00:37;100105.19;;;8.37;94.00
59877;BME280;74472;51.140;17.184;2024-02-28T02:03:03;100100.59;;;8.41;93.92
59877;BME280;74472;51.140;17.184;2024-02-28T02:05:29;100097.88;;;8.42;93.74
59877;BME280;74472;51.140;17.184;2024-02-28T02:07:57;100101.72;;;8.37;93.83
59877;BME280;74472;51.140;17.184;2024-02-28T02:10:22;100102.00;;;8.32;94.15
59877;BME280;74472;51.140;17.184;2024-02-28T02:12:48;100095.69;;;8.35;94.38
59877;BME280;74472;51.140;17.184;2024-02-28T02:15:13;100092.81;;;8.39;93.93
59877;BME280;74472;51.140;17.184;2024-02-28T02:17:39;100087.34;;;8.42;94.08
59877;BME280;74472;51.140;17.184;2024-02-28T02:20:04;100089.97;;;8.42;94.14
59877;BME280;74472;51.140;17.184;2024-02-28T02:22:36;100095.63;;;8.36;94.30
59877;BME280;74472;51.140;17.184;2024-02-28T02:25:03;100095.31;;;8.41;94.45
59877;BME280;74472;51.140;17.184;2024-02-28T02:27:29;100100.69;;;8.39;94.14
59877;BME280;74472;51.140;17.184;2024-02-28T02:29:54;100100.69;;;8.39;94.25
59877;BME280;74472;51.140;17.184;2024-02-28T02:32:19;100098.69;;;8.43;94.45
59877;BME280;74472;51.140;17.184;2024-02-28T02:34:45;100096.59;;;8.48;94.12
59877;BME280;74472;51.140;17.184;2024-02-28T02:37:10;100090.28;;;8.51;93.89
59877;BME280;74472;51.140;17.184;2024-02-28T02:39:36;100085.03;;;8.51;94.17
59877;BME280;74472;51.140;17.184;2024-02-28T02:42:01;100090.84;;;8.56;93.74
59877;BME280;74472;51.140;17.184;2024-02-28T02:44:27;100089.88;;;8.57;94.19
59877;BME280;74472;51.140;17.184;2024-02-28T02:46:52;100081.03;;;8.58;93.84
59877;BME280;74472;51.140;17.184;2024-02-28T02:49:17;100086.84;;;8.63;94.12
59877;BME280;74472;51.140;17.184;2024-02-28T02:51:44;100086.63;;;8.66;93.98
59877;BME280;74472;51.140;17.184;2024-02-28T02:54:09;100085.03;;;8.63;93.75
59877;BME280;74472;51.140;17.184;2024-02-28T02:56:34;100099.03;;;8.64;93.85
59877;BME280;74472;51.140;17.184;2024-02-28T02:59:00;100100.06;;;8.61;93.61
59877;BME280;74472;51.140;17.184;2024-02-28T03:01:25;100093.47;;;8.56;93.90
59877;BME280;74472;51.140;17.184;2024-02-28T03:03:50;100091.47;;;8.59;94.05
59877;BME280;74472;51.140;17.184;2024-02-28T03:06:16;100094.94;;;8.60;94.01
59877;BME280;74472;51.140;17.184;2024-02-28T03:08:42;100099.22;;;8.61;94.02
59877;BME280;74472;51.140;17.184;2024-02-28T03:11:07;100098.28;;;8.62;94.39
59877;BME280;74472;51.140;17.184;2024-02-28T03:13:34;100093.56;;;8.67;94.10
59877;BME280;74472;51.140;17.184;2024-02-28T03:15:59;100100.28;;;8.71;93.67
59877;BME280;74472;51.140;17.184;2024-02-28T03:18:24;100099.88;;;8.64;93.96
59877;BME280;74472;51.140;17.184;2024-02-28T03:20:50;100107.56;;;8.67;94.22
59877;BME280;74472;51.140;17.184;2024-02-28T03:23:15;100107.13;;;8.74;94.34
59877;BME280;74472;51.140;17.184;2024-02-28T03:25:40;100107.97;;;8.74;93.98
59877;BME280;74472;51.140;17.184;2024-02-28T03:28:06;100110.50;;;8.76;94.32
59877;BME280;74472;51.140;17.184;2024-02-28T03:30:31;100104.19;;;8.78;94.00
59877;BME280;74472;51.140;17.184;2024-02-28T03:32:56;100103.53;;;8.75;93.89
59877;BME280;74472;51.140;17.184;2024-02-28T03:35:21;100114.91;;;8.75;93.77
59877;BME280;74472;51.140;17.184;2024-02-28T03:37:47;100108.59;;;8.65;93.72
59877;BME280;74472;51.140;17.184;2024-02-28T03:40:12;100107.53;;;8.55;94.20
59877;BME280;74472;51.140;17.184;2024-02-28T03:42:37;100114.72;;;8.53;94.10
59877;BME280;74472;51.140;17.184;2024-02-28T03:45:03;100117.34;;;8.53;94.19
59877;BME280;74472;51.140;17.184;2024-02-28T03:47:29;100111.53;;;8.48;94.68
59877;BME280;74472;51.140;17.184;2024-02-28T03:49:54;100119.97;;;8.53;94.73
59877;BME280;74472;51.140;17.184;2024-02-28T03:52:22;100116.38;;;8.54;94.96
59877;BME280;74472;51.140;17.184;2024-02-28T03:54:48;100113.22;;;8.61;94.77
59877;BME280;74472;51.140;17.184;2024-02-28T03:57:13;100116.28;;;8.68;94.64
59877;BME280;74472;51.140;17.184;2024-02-28T03:59:40;100107.47;;;8.69;94.24
59877;BME280;74472;51.140;17.184;2024-02-28T04:02:06;100116.19;;;8.69;94.21
59877;BME280;74472;51.140;17.184;2024-02-28T04:04:31;100118.69;;;8.71;94.31
59877;BME280;74472;51.140;17.184;2024-02-28T04:06:56;100121.44;;;8.69;94.22
59877;BME280;74472;51.140;17.184;2024-02-28T04:09:22;100120.63;;;8.69;94.26
59877;BME280;74472;51.140;17.184;2024-02-28T04:11:47;100128.91;;;8.63;94.21
59877;BME280;74472;51.140;17.184;2024-02-28T04:14:13;100130.91;;;8.59;94.58
59877;BME280;74472;51.140;17.184;2024-02-28T04:16:43;100137.09;;;8.58;94.70
59877;BME280;74472;51.140;17.184;2024-02-28T04:19:09;100132.16;;;8.54;94.59
59877;BME280;74472;51.140;17.184;2024-02-28T04:21:35;100133.63;;;8.58;94.77
59877;BME280;74472;51.140;17.184;2024-02-28T04:24:00;100134.06;;;8.64;94.72
59877;BME280;74472;51.140;17.184;2024-02-28T04:26:25;100141.66;;;8.69;94.73
59877;BME280;74472;51.140;17.184;2024-02-28T04:28:51;100136.47;;;8.67;94.48
59877;BME280;74472;51.140;17.184;2024-02-28T04:31:16;100143.75;;;8.64;94.26
59877;BME280;74472;51.140;17.184;2024-02-28T04:33:41;100145.63;;;8.62;94.77
59877;BME280;74472;51.140;17.184;2024-02-28T04:36:07;100144.50;;;8.66;94.84
59877;BME280;74472;51.140;17.184;2024-02-28T04:38:32;100146.28;;;8.65;94.78
59877;BME280;74472;51.140;17.184;2024-02-28T04:40:57;100143.75;;;8.64;94.56
59877;BME280;74472;51.140;17.184;2024-02-28T04:43:22;100143.75;;;8.64;94.86
59877;BME280;74472;51.140;17.184;2024-02-28T04:45:48;100147.97;;;8.66;95.01
59877;BME280;74472;51.140;17.184;2024-02-28T04:48:13;100154.59;;;8.72;95.03
59877;BME280;74472;51.140;17.184;2024-02-28T04:50:39;100151.09;;;8.72;94.71
59877;BME280;74472;51.140;17.184;2024-02-28T04:53:04;100150.47;;;8.68;94.54
59877;BME280;74472;51.140;17.184;2024-02-28T04:55:29;100155.31;;;8.61;94.61
59877;BME280;74472;51.140;17.184;2024-02-28T04:57:55;100147.94;;;8.54;94.72
59877;BME280;74472;51.140;17.184;2024-02-28T05:00:20;100160.13;;;8.55;95.10
59877;BME280;74472;51.140;17.184;2024-02-28T05:02:45;100155.63;;;8.57;95.24
59877;BME280;74472;51.140;17.184;2024-02-28T05:05:11;100159.81;;;8.47;95.25
59877;BME280;74472;51.140;17.184;2024-02-28T05:07:36;100163.38;;;8.45;95.30
59877;BME280;74472;51.140;17.184;2024-02-28T05:10:01;100160.22;;;8.40;95.30
59877;BME280;74472;51.140;17.184;2024-02-28T05:12:27;100162.94;;;8.39;95.71
59877;BME280;74472;51.140;17.184;2024-02-28T05:14:52;100160.59;;;8.34;95.74
59877;BME280;74472;51.140;17.184;2024-02-28T05:17:17;100167.72;;;8.32;95.78
59877;BME280;74472;51.140;17.184;2024-02-28T05:19:42;100173.94;;;8.31;95.76
59877;BME280;74472;51.140;17.184;2024-02-28T05:22:08;100183.91;;;8.26;95.86
59877;BME280;74472;51.140;17.184;2024-02-28T05:24:36;100181.28;;;8.26;96.22
59877;BME280;74472;51.140;17.184;2024-02-28T05:27:01;100186.34;;;8.29;96.31
59877;BME280;74472;51.140;17.184;2024-02-28T05:29:27;100178.66;;;8.26;96.25
59877;BME280;74472;51.140;17.184;2024-02-28T05:31:52;100187.59;;;8.23;96.50
59877;BME280;74472;51.140;17.184;2024-02-28T05:34:17;100189.00;;;8.15;96.24
59877;BME280;74472;51.140;17.184;2024-02-28T05:36:43;100196.19;;;8.13;96.73
59877;BME280;74472;51.140;17.184;2024-02-28T05:39:08;100195.88;;;8.17;96.71
59877;BME280;74472;51.140;17.184;2024-02-28T05:41:34;100199.25;;;8.19;96.53
59877;BME280;74472;51.140;17.184;2024-02-28T05:43:59;100199.53;;;8.15;96.73
59877;BME280;74472;51.140;17.184;2024-02-28T05:46:24;100210.03;;;8.15;96.69
59877;BME280;74472;51.140;17.184;2024-02-28T05:48:50;100206.69;;;8.13;96.77
59877;BME280;74472;51.140;17.184;2024-02-28T05:51:15;100212.13;;;8.10;96.93
59877;BME280;74472;51.140;17.184;2024-02-28T05:53:41;100211.28;;;8.09;97.06
59877;BME280;74472;51.140;17.184;2024-02-28T05:56:08;100212.13;;;8.10;97.18
59877;BME280;74472;51.140;17.184;2024-02-28T05:58:39;100216.75;;;8.06;97.22
59877;BME280;74472;51.140;17.184;2024-02-28T06:01:04;100222.84;;;8.07;97.44
59877;BME280;74472;51.140;17.184;2024-02-28T06:03:30;100214.00;;;8.08;97.32
59877;BME280;74472;51.140;17.184;2024-02-28T06:05:55;100219.25;;;8.08;97.30
59877;BME280;74472;51.140;17.184;2024-02-28T06:08:22;100221.91;;;8.08;97.54
59877;BME280;74472;51.140;17.184;2024-02-28T06:10:48;100224.31;;;8.11;97.73
59877;BME280;74472;51.140;17.184;2024-02-28T06:13:13;100232.75;;;8.16;97.67
59877;BME280;74472;51.140;17.184;2024-02-28T06:15:39;100229.91;;;8.19;97.65
59877;BME280;74472;51.140;17.184;2024-02-28T06:18:04;100223.81;;;8.18;97.31
59877;BME280;74472;51.140;17.184;2024-02-28T06:20:30;100228.16;;;8.19;97.45
59877;BME280;74472;51.140;17.184;2024-02-28T06:22:55;100229.00;;;8.20;97.32
59877;BME280;74472;51.140;17.184;2024-02-28T06:25:20;100236.59;;;8.25;97.30
59877;BME280;74472;51.140;17.184;2024-02-28T06:27:48;100223.44;;;8.25;97.29
59877;BME280;74472;51.140;17.184;2024-02-28T06:30:14;100237.16;;;8.30;97.29
59877;BME280;74472;51.140;17.184;2024-02-28T06:32:39;100241.34;;;8.32;97.49
59877;BME280;74472;51.140;17.184;2024-02-28T06:35:06;100239.78;;;8.30;97.47
59877;BME280;74472;51.140;17.184;2024-02-28T06:37:32;100247.53;;;8.31;97.31
59877;BME280;74472;51.140;17.184;2024-02-28T06:39:57;100244.19;;;8.29;97.43
59877;BME280;74472;51.140;17.184;2024-02-28T06:42:23;100244.28;;;8.28;97.46
59877;BME280;74472;51.140;17.184;2024-02-28T06:44:48;100239.78;;;8.30;97.37
59877;BME280;74472;51.140;17.184;2024-02-28T06:47:13;100243.75;;;8.35;97.67
59877;BME280;74472;51.140;17.184;2024-02-28T06:49:39;100247.81;;;8.41;97.62
59877;BME280;74472;51.140;17.184;2024-02-28T06:52:04;100255.63;;;8.42;97.57
59877;BME280;74472;51.140;17.184;2024-02-28T06:54:30;100254.38;;;8.48;97.86
59877;BME280;74472;51.140;17.184;2024-02-28T06:56:55;100256.72;;;8.53;97.47
59877;BME280;74472;51.140;17.184;2024-02-28T06:59:21;100250.81;;;8.49;97.37
59877;BME280;74472;51.140;17.184;2024-02-28T07:01:46;100251.94;;;8.45;97.42
59877;BME280;74472;51.140;17.184;2024-02-28T07:04:11;100259.00;;;8.44;97.35
59877;BME280;74472;51.140;17.184;2024-02-28T07:06:37;100266.69;;;8.48;97.42
59877;BME280;74472;51.140;17.184;2024-02-28T07:09:02;100263.41;;;8.44;97.51
59877;BME280;74472;51.140;17.184;2024-02-28T07:11:27;100266.88;;;8.44;97.82
59877;BME280;74472;51.140;17.184;2024-02-28T07:13:53;100271.94;;;8.48;97.85
59877;BME280;74472;51.140;17.184;2024-02-28T07:16:18;100273.63;;;8.49;97.75
59877;BME280;74472;51.140;17.184;2024-02-28T07:18:44;100267.31;;;8.51;98.13
59877;BME280;74472;51.140;17.184;2024-02-28T07:21:09;100275.31;;;8.50;97.68
59877;BME280;74472;51.140;17.184;2024-02-28T07:23:34;100271.00;;;8.49;97.96
59877;BME280;74472;51.140;17.184;2024-02-28T07:25:59;100281.31;;;8.52;98.03
59877;BME280;74472;51.140;17.184;2024-02-28T07:28:25;100285.66;;;8.53;98.02
59877;BME280;74472;51.140;17.184;2024-02-28T07:30:50;100294.47;;;8.52;98.12
59877;BME280;74472;51.140;17.184;2024-02-28T07:33:15;100295.84;;;8.57;98.19
59877;BME280;74472;51.140;17.184;2024-02-28T07:35:47;100297.34;;;8.61;98.35
59877;BME280;74472;51.140;17.184;2024-02-28T07:38:13;100295.53;;;8.62;97.90
59877;BME280;74472;51.140;17.184;2024-02-28T07:40:38;100292.19;;;8.60;98.33
59877;BME280;74472;51.140;17.184;2024-02-28T07:43:03;100304.41;;;8.61;98.17
59877;BME280;74472;51.140;17.184;2024-02-28T07:45:29;100299.88;;;8.63;98.62
59877;BME280;74472;51.140;17.184;2024-02-28T07:47:54;100304.66;;;8.71;98.38
59877;BME280;74472;51.140;17.184;2024-02-28T07:50:19;100306.22;;;8.73;98.25
59877;BME280;74472;51.140;17.184;2024-02-28T07:52:45;100311.38;;;8.75;98.01
59877;BME280;74472;51.140;17.184;2024-02-28T07:55:10;100307.28;;;8.71;98.23
59877;BME280;74472;51.140;17.184;2024-02-28T07:57:35;100300.34;;;8.69;98.18
59877;BME280;74472;51.140;17.184;2024-02-28T08:00:01;100305.19;;;8.76;98.49
59877;BME280;74472;51.140;17.184;2024-02-28T08:02:26;100315.53;;;8.79;98.22
59877;BME280;74472;51.140;17.184;2024-02-28T08:04:52;100313.41;;;8.84;98.22
59877;BME280;74472;51.140;17.184;2024-02-28T08:07:17;100311.53;;;8.86;98.22
59877;BME280;74472;51.140;17.184;2024-02-28T08:09:42;100315.66;;;8.90;98.35
59877;BME280;74472;51.140;17.184;2024-02-28T08:12:08;100311.78;;;8.96;98.69
59877;BME280;74472;51.140;17.184;2024-02-28T08:14:33;100311.78;;;8.96;98.27
59877;BME280;74472;51.140;17.184;2024-02-28T08:16:58;100317.69;;;8.99;98.35
59877;BME280;74472;51.140;17.184;2024-02-28T08:19:24;100319.38;;;9.00;98.30
59877;BME280;74472;51.140;17.184;2024-02-28T08:21:49;100323.16;;;8.96;98.06
59877;BME280;74472;51.140;17.184;2024-02-28T08:24:15;100324.38;;;8.90;98.11
59877;BME280;74472;51.140;17.184;2024-02-28T08:26:40;100322.06;;;8.86;98.47
59877;BME280;74472;51.140;17.184;2024-02-28T08:29:07;100335.75;;;8.91;98.57
59877;BME280;74472;51.140;17.184;2024-02-28T08:31:32;100329.44;;;8.93;98.81
59877;BME280;74472;51.140;17.184;2024-02-28T08:33:58;100327.34;;;8.86;97.98
59877;BME280;74472;51.140;17.184;2024-02-28T08:36:23;100332.59;;;8.86;98.59
59877;BME280;74472;51.140;17.184;2024-02-28T08:38:48;100338.78;;;8.85;98.10
59877;BME280;74472;51.140;17.184;2024-02-28T08:41:14;100332.78;;;8.83;98.35
59877;BME280;74472;51.140;17.184;2024-02-28T08:43:39;100337.84;;;8.86;98.53
59877;BME280;74472;51.140;17.184;2024-02-28T08:46:05;100341.13;;;8.89;98.57
59877;BME280;74472;51.140;17.184;2024-02-28T08:48:32;100329.13;;;8.85;98.33
59877;BME280;74472;51.140;17.184;2024-02-28T08:50:58;100336.06;;;8.86;98.69
59877;BME280;74472;51.140;17.184;2024-02-28T08:53:23;100346.28;;;8.91;98.75
59877;BME280;74472;51.140;17.184;2024-02-28T08:55:48;100342.59;;;8.93;98.81
59877;BME280;74472;51.140;17.184;2024-02-28T08:58:14;100344.84;;;9.00;98.86
59877;BME280;74472;51.140;17.184;2024-02-28T09:00:39;100346.31;;;9.04;98.83
59877;BME280;74472;51.140;17.184;2024-02-28T09:03:05;100345.28;;;9.06;98.77
59877;BME280;74472;51.140;17.184;2024-02-28T09:05:30;100349.78;;;9.04;98.80
59877;BME280;74472;51.140;17.184;2024-02-28T09:07:56;100358.44;;;9.06;98.61
59877;BME280;74472;51.140;17.184;2024-02-28T09:10:22;100356.00;;;9.03;98.40
59877;BME280;74472;51.140;17.184;2024-02-28T09:12:49;100346.72;;;8.98;98.27
59877;BME280;74472;51.140;17.184;2024-02-28T09:15:14;100348.44;;;8.99;98.43
59877;BME280;74472;51.140;17.184;2024-02-28T09:17:40;100355.16;;;9.03;98.60
59877;BME280;74472;51.140;17.184;2024-02-28T09:20:05;100354.13;;;9.05;98.85
59877;BME280;74472;51.140;17.184;2024-02-28T09:22:31;100352.53;;;9.03;98.55
59877;BME280;74472;51.140;17.184;2024-02-28T09:24:57;100347.47;;;9.00;98.37
59877;BME280;74472;51.140;17.184;2024-02-28T09:27:22;100354.53;;;8.99;98.83
59877;BME280;74472;51.140;17.184;2024-02-28T09:29:49;100357.06;;;9.01;98.41
59877;BME280;74472;51.140;17.184;2024-02-28T09:32:14;100360.72;;;8.98;98.96
59877;BME280;74472;51.140;17.184;2024-02-28T09:34:40;100361.03;;;8.93;98.45
59877;BME280;74472;51.140;17.184;2024-02-28T09:37:05;100370.31;;;8.99;98.81
59877;BME280;74472;51.140;17.184;2024-02-28T09:39:30;100372.97;;;8.99;98.83
59877;BME280;74472;51.140;17.184;2024-02-28T09:41:56;100368.53;;;9.00;98.61
59877;BME280;74472;51.140;17.184;2024-02-28T09:44:22;100373.44;;;8.91;98.51
59877;BME280;74472;51.140;17.184;2024-02-28T09:46:51;100378.81;;;8.90;99.04
59877;BME280;74472;51.140;17.184;2024-02-28T09:49:18;100380.59;;;8.89;98.99
59877;BME280;74472;51.140;17.184;2024-02-28T09:51:44;100389.44;;;8.88;98.88
59877;BME280;74472;51.140;17.184;2024-02-28T09:54:10;100387.28;;;8.81;98.56
59877;BME280;74472;51.140;17.184;2024-02-28T09:56:35;100391.16;;;8.75;98.55
59877;BME280;74472;51.140;17.184;2024-02-28T09:59:01;100393.06;;;8.73;98.97
59877;BME280;74472;51.140;17.184;2024-02-28T10:01:28;100402.75;;;8.73;99.04
59877;BME280;74472;51.140;17.184;2024-02-28T10:03:54;100385.53;;;8.67;98.87
59877;BME280;74472;51.140;17.184;2024-02-28T10:06:21;100395.88;;;8.70;99.32
59877;BME280;74472;51.140;17.184;2024-02-28T10:08:47;100383.31;;;8.61;99.28
59877;BME280;74472;51.140;17.184;2024-02-28T10:11:22;100394.41;;;8.66;99.22
59877;BME280;74472;51.140;17.184;2024-02-28T10:13:49;100397.09;;;8.64;99.24
59877;BME280;74472;51.140;17.184;2024-02-28T10:16:14;100403.13;;;8.66;99.42
59877;BME280;74472;51.140;17.184;2024-02-28T10:18:43;100404.81;;;8.67;99.28
59877;BME280;74472;51.140;17.184;2024-02-28T10:21:09;100404.25;;;8.62;99.19
59877;BME280;74472;51.140;17.184;2024-02-28T10:23:36;100409.41;;;8.64;99.25
59877;BME280;74472;51.140;17.184;2024-02-28T10:26:02;100405.09;;;8.63;99.22
59877;BME280;74472;51.140;17.184;2024-02-28T10:28:27;100400.88;;;8.60;99.02
59877;BME280;74472;51.140;17.184;2024-02-28T10:30:53;100406.31;;;8.57;98.90
59877;BME280;74472;51.140;17.184;2024-02-28T10:33:19;100397.13;;;8.50;99.10
59877;BME280;74472;51.140;17.184;2024-02-28T10:35:45;100409.91;;;8.56;99.37
59877;BME280;74472;51.140;17.184;2024-02-28T10:38:11;100412.81;;;8.52;99.00
59877;BME280;74472;51.140;17.184;2024-02-28T10:40:37;100412.47;;;8.43;99.25
59877;BME280;74472;51.140;17.184;2024-02-28T10:43:03;100424.56;;;8.46;99.32
59877;BME280;74472;51.140;17.184;2024-02-28T10:45:35;100424.75;;;8.43;99.13
59877;BME280;74472;51.140;17.184;2024-02-28T10:48:02;100424.97;;;8.40;99.31
59877;BME280;74472;51.140;17.184;2024-02-28T10:50:28;100416.38;;;8.36;99.41
59877;BME280;74472;51.140;17.184;2024-02-28T10:52:54;100432.25;;;8.35;99.35
59877;BME280;74472;51.140;17.184;2024-02-28T10:55:25;100421.91;;;8.32;99.24
59877;BME280;74472;51.140;17.184;2024-02-28T10:58:02;100432.25;;;8.35;99.42
59877;BME280;74472;51.140;17.184;2024-02-28T11:00:29;100430.56;;;8.34;99.75
59877;BME280;74472;51.140;17.184;2024-02-28T11:02:56;100427.66;;;8.38;100.00
59877;BME280;74472;51.140;17.184;2024-02-28T11:05:21;100438.75;;;8.43;99.84
59877;BME280;74472;51.140;17.184;2024-02-28T11:07:51;100439.69;;;8.42;99.70
59877;BME280;74472;51.140;17.184;2024-02-28T11:10:16;100442.13;;;8.45;99.60
59877;BME280;74472;51.140;17.184;2024-02-28T11:12:43;100454.53;;;8.43;99.73
59877;BME280;74472;51.140;17.184;2024-02-28T11:15:16;100455.56;;;8.41;99.12
59877;BME280;74472;51.140;17.184;2024-02-28T11:17:42;100446.22;;;8.35;99.27
59877;BME280;74472;51.140;17.184;2024-02-28T11:20:13;100455.81;;;8.36;99.50
59877;BME280;74472;51.140;17.184;2024-02-28T11:22:39;100453.28;;;8.35;99.55
59877;BME280;74472;51.140;17.184;2024-02-28T11:25:05;100457.88;;;8.31;99.14
59877;BME280;74472;51.140;17.184;2024-02-28T11:27:31;100451.13;;;8.27;99.29
59877;BME280;74472;51.140;17.184;2024-02-28T11:29:57;100453.94;;;8.24;99.49
59877;BME280;74472;51.140;17.184;2024-02-28T11:32:24;100461.06;;;8.22;99.38
59877;BME280;74472;51.140;17.184;2024-02-28T11:34:50;100467.06;;;8.24;99.36
59877;BME280;74472;51.140;17.184;2024-02-28T11:37:18;100468.75;;;8.25;99.55
59877;BME280;74472;51.140;17.184;2024-02-28T11:39:47;100465.28;;;8.25;99.29
59877;BME280;74472;51.140;17.184;2024-02-28T11:42:14;100469.72;;;8.24;99.56
59877;BME280;74472;51.140;17.184;2024-02-28T11:44:41;100463.50;;;8.25;99.01
59877;BME280;74472;51.140;17.184;2024-02-28T11:47:10;100456.09;;;8.17;99.34
59877;BME280;74472;51.140;17.184;2024-02-28T11:49:38;100457.13;;;8.15;99.10
59877;BME280;74472;51.140;17.184;2024-02-28T11:52:06;100460.50;;;8.17;99.33
59877;BME280;74472;51.140;17.184;2024-02-28T11:54:31;100468.22;;;8.20;99.45
59877;BME280;74472;51.140;17.184;2024-02-28T11:56:57;100465.28;;;8.25;99.89
59877;BME280;74472;51.140;17.184;2024-02-28T11:59:22;100466.59;;;8.32;99.57
59877;BME280;74472;51.140;17.184;2024-02-28T12:01:48;100463.78;;;8.35;99.10
59877;BME280;74472;51.140;17.184;2024-02-28T12:04:13;100468.38;;;8.31;99.17
59877;BME280;74472;51.140;17.184;2024-02-28T12:06:40;100477.03;;;8.33;99.27
59877;BME280;74472;51.140;17.184;2024-02-28T12:09:07;100476.03;;;8.36;99.18
59877;BME280;74472;51.140;17.184;2024-02-28T12:11:36;100474.31;;;8.35;98.91
59877;BME280;74472;51.140;17.184;2024-02-28T12:14:03;100479.66;;;8.33;99.21
59877;BME280;74472;51.140;17.184;2024-02-28T12:16:30;100481.34;;;8.34;99.31
59877;BME280;74472;51.140;17.184;2024-02-28T12:18:55;100487.94;;;8.27;98.83
59877;BME280;74472;51.140;17.184;2024-02-28T12:21:21;100491.56;;;8.25;98.72
59877;BME280;74472;51.140;17.184;2024-02-28T12:23:46;100491.88;;;8.20;99.01
59877;BME280;74472;51.140;17.184;2024-02-28T12:26:14;100483.13;;;8.19;99.04
59877;BME280;74472;51.140;17.184;2024-02-28T12:28:39;100479.63;;;8.19;98.83
59877;BME280;74472;51.140;17.184;2024-02-28T12:31:05;100487.63;;;8.17;98.83
59877;BME280;74472;51.140;17.184;2024-02-28T12:33:34;100484.53;;;8.11;98.81
59877;BME280;74472;51.140;17.184;2024-02-28T12:35:59;100479.56;;;8.06;99.05
59877;BME280;74472;51.140;17.184;2024-02-28T12:38:28;100481.97;;;8.09;98.78
59877;BME280;74472;51.140;17.184;2024-02-28T12:40:54;100480.41;;;8.07;99.22
59877;BME280;74472;51.140;17.184;2024-02-28T12:43:19;100476.06;;;8.06;98.96